Pagina principale
METAR-TAF:

METAR-TAF

Aeroporti :

Lake City, Florida, Stati Uniti

latitudine: 30-10-55N, longitudine: 082-34-37W, altezza: 61 m

Osservazione

Il bollettino è stato emesso 33 minuti fa, alle 12:55 UTC
Vento 4 kt da nord
Temperature 6°C
Umidità 93%
Pressione 1017 hPa
Visibilità: 16.1 km
Cielo sereno

METAR: KLCQ 281255Z AUTO 01004KT 10SM CLR 06/05 A3003 RMK AO2

Ora: 08:28 (13:28 UTC)


TAF: mancante

Osservazioni e previsioni meteorologiche di più di 4000 aeroporti (messaggi METAR e TAF).

Le stazioni disponibili sono rappresentate dai dischi gialli e rossi sulla carta.

Puntare il mouse per vedere il nome della stazione.

Clicca sopra per visualizzare le osservazioni e previsioni meteorologiche.

Per cambiare la mappa : fare clic sui pulsanti verdi con una croce nera per ingrandire, il pulsante verde con un trattino per diminuire, o sulla freccia verde per le mappe adiacenti.


METAR-TAF: